Time;durP1;ratioP1;P1;durP2;ratioP2;P2;SDS_P1;SDS_P2;PMS_P1;PMS_P2;Temp;Humidity;BMP_temperature;BMP_pressure;BME280_temperature;BME280_humidity;BME280_pressure;Samples;Min_cycle;Max_cycle;Signal;HPM_P1;HPM_P2
2021/06/29 00:02:14;;;;;;;;;;;;;;;26.89;43.45;100339.28;1671216;86;20229;-78
2021/06/29 00:04:40;;;;;;;;;;;;;;;26.87;43.36;100330.50;1667763;86;20183;-78
2021/06/29 00:07:06;;;;;;;;;;;;;;;26.84;43.38;100330.48;1692302;85;20198;-79
2021/06/29 00:09:32;;;;;;;;;;;;;;;26.82;43.37;100332.68;1662863;86;20158;-78
2021/06/29 00:11:58;;;;;;;;;;;;;;;26.77;43.44;100326.62;1670991;86;20131;-78
2021/06/29 00:14:24;;;;;;;;;;;;;;;26.77;43.46;100332.66;1667615;86;20211;-78
2021/06/29 00:16:50;;;;;;;;;;;;;;;26.76;43.41;100329.09;1662814;86;20192;-78
2021/06/29 00:19:18;;;;;;;;;;;;;;;26.72;43.48;100327.16;1671611;86;20238;-79
2021/06/29 00:21:44;;;;;;;;;;;;;;;26.71;43.49;100331.00;1667593;86;20232;-79
2021/06/29 00:24:10;;;;;;;;;;;;;;;26.68;43.44;100330.97;1668868;86;20157;-78
2021/06/29 00:26:36;;;;;;;;;;;;;;;26.65;43.45;100328.75;1693313;85;20174;-79
2021/06/29 00:29:02;;;;;;;;;;;;;;;26.64;43.37;100324.36;1664027;86;20267;-79
2021/06/29 00:31:28;;;;;;;;;;;;;;;26.63;43.42;100331.50;1672071;86;20208;-79
2021/06/29 00:33:53;;;;;;;;;;;;;;;26.62;43.44;100328.48;1667792;86;20184;-79
2021/06/29 00:36:19;;;;;;;;;;;;;;;26.60;43.40;100323.23;1692429;85;20146;-79
2021/06/29 00:38:45;;;;;;;;;;;;;;;26.60;43.41;100323.79;1671355;86;20161;-79
2021/06/29 00:41:11;;;;;;;;;;;;;;;26.58;43.44;100324.06;1667899;86;20183;-79
2021/06/29 00:43:37;;;;;;;;;;;;;;;26.56;43.49;100318.00;1663127;86;20146;-79
2021/06/29 00:46:03;;;;;;;;;;;;;;;26.54;43.51;100310.03;1663491;86;20196;-79
2021/06/29 00:48:29;;;;;;;;;;;;;;;26.51;43.49;100309.73;1671477;86;20206;-79
2021/06/29 00:50:55;;;;;;;;;;;;;;;26.48;43.49;100307.52;1667427;86;20247;-79
2021/06/29 00:53:22;;;;;;;;;;;;;;;26.45;43.52;100300.66;1662335;86;20205;-80
2021/06/29 00:55:48;;;;;;;;;;;;;;;26.43;43.57;100301.45;1652355;87;20174;-79
2021/06/29 00:58:14;;;;;;;;;;;;;;;26.44;43.57;100304.50;1668508;86;20196;-79
2021/06/29 01:00:43;;;;;;;;;;;;;;;26.45;43.52;100305.32;1668872;85;20156;-79
2021/06/29 01:03:09;;;;;;;;;;;;;;;26.44;43.52;100303.67;1662797;86;20150;-79
2021/06/29 01:05:35;;;;;;;;;;;;;;;26.44;43.49;100303.67;1680775;85;20263;-78
2021/06/29 01:08:01;;;;;;;;;;;;;;;26.43;43.50;100304.19;1667246;85;20150;-78
2021/06/29 01:10:28;;;;;;;;;;;;;;;26.44;43.44;100304.50;1680799;85;20420;-78
2021/06/29 01:12:54;;;;;;;;;;;;;;;26.43;43.39;100305.56;1680599;85;20174;-79
2021/06/29 01:15:23;;;;;;;;;;;;;;;26.44;43.42;100312.73;1680558;85;20238;-79
2021/06/29 01:17:54;;;;;;;;;;;;;;;26.45;43.41;100316.30;1679984;84;20173;-78
2021/06/29 01:20:26;;;;;;;;;;;;;;;26.42;43.42;100316.80;1679707;85;20181;-79
2021/06/29 01:22:51;;;;;;;;;;;;;;;26.40;43.49;100313.50;1678094;84;20177;-79
2021/06/29 01:25:16;;;;;;;;;;;;;;;26.38;43.55;100306.06;1679681;85;20184;-78
2021/06/29 01:32:40;;;;;;;;;;;;;;;26.29;43.74;100307.94;1681163;85;20178;-79
2021/06/29 01:35:08;;;;;;;;;;;;;;;26.26;43.81;100308.48;1680249;85;20191;-78
2021/06/29 01:37:35;;;;;;;;;;;;;;;26.19;43.98;100303.77;1679581;85;20213;-79
2021/06/29 01:40:08;;;;;;;;;;;;;;;26.20;43.98;100306.78;1679722;85;20188;-79
2021/06/29 01:42:31;;;;;;;;;;;;;;;26.19;43.97;100313.38;1679115;84;20185;-79
2021/06/29 01:44:58;;;;;;;;;;;;;;;26.17;43.99;100312.83;1679695;85;20197;-79
2021/06/29 01:47:40;;;;;;;;;;;;;;;26.14;44.02;100313.34;1679872;85;20252;-80
2021/06/29 01:50:15;;;;;;;;;;;;;;;26.12;44.08;100308.68;1679528;85;20215;-79
2021/06/29 01:52:40;;;;;;;;;;;;;;;26.06;44.17;100308.34;1676728;85;20189;-79
2021/06/29 01:55:07;;;;;;;;;;;;;;;26.01;44.24;100311.06;1679701;85;20168;-79
2021/06/29 01:57:33;;;;;;;;;;;;;;;25.99;44.25;100308.59;1679722;85;20196;-79
2021/06/29 02:00:00;;;;;;;;;;;;;;;26.00;44.18;100317.09;1679918;85;20172;-79
2021/06/29 02:02:26;;;;;;;;;;;;;;;25.98;44.26;100315.17;1680439;84;20187;-78
2021/06/29 02:04:52;;;;;;;;;;;;;;;25.96;44.35;100324.75;1681089;85;20183;-78
2021/06/29 02:07:18;;;;;;;;;;;;;;;25.94;44.41;100319.53;1680319;85;20200;-79
2021/06/29 02:09:44;;;;;;;;;;;;;;;25.96;44.40;100325.57;1679982;85;20219;-79
2021/06/29 02:12:10;;;;;;;;;;;;;;;25.96;44.46;100317.34;1679856;85;20235;-79
2021/06/29 02:14:37;;;;;;;;;;;;;;;25.95;44.48;100325.30;1679834;85;20181;-79
2021/06/29 02:17:04;;;;;;;;;;;;;;;25.97;44.37;100318.16;1679816;85;20462;-79
2021/06/29 02:19:30;;;;;;;;;;;;;;;25.94;44.43;100331.06;1679553;85;20188;-79
2021/06/29 02:21:57;;;;;;;;;;;;;;;25.92;44.46;100324.44;1679479;85;20197;-79
2021/06/29 02:24:23;;;;;;;;;;;;;;;25.96;44.36;100324.75;1678679;85;20184;-78
2021/06/29 02:26:48;;;;;;;;;;;;;;;25.98;44.31;100317.06;1680246;85;20171;-79
2021/06/29 02:29:14;;;;;;;;;;;;;;;25.98;44.33;100325.30;1680905;85;20219;-80
2021/06/29 02:31:41;;;;;;;;;;;;;;;25.98;44.30;100325.30;1681132;85;20211;-79
2021/06/29 02:34:07;;;;;;;;;;;;;;;25.98;44.31;100321.18;1680142;85;20140;-80
2021/06/29 02:36:33;;;;;;;;;;;;;;;25.93;44.42;100328.00;1680362;85;20187;-79
2021/06/29 02:38:58;;;;;;;;;;;;;;;25.96;44.32;100322.83;1680287;85;20239;-79
2021/06/29 02:41:25;;;;;;;;;;;;;;;25.98;44.31;100328.04;1680703;85;20180;-79
2021/06/29 02:43:50;;;;;;;;;;;;;;;25.96;44.32;100325.57;1679913;85;20254;-79
2021/06/29 02:46:16;;;;;;;;;;;;;;;25.96;44.41;100327.48;1680109;85;20195;-79
2021/06/29 02:48:42;;;;;;;;;;;;;;;25.97;44.40;100326.39;1679829;85;20709;-79
2021/06/29 02:51:08;;;;;;;;;;;;;;;26.02;44.29;100330.55;1680333;85;20168;-79
2021/06/29 02:53:34;;;;;;;;;;;;;;;26.06;44.21;100327.55;1680421;85;20514;-77
2021/06/29 02:56:00;;;;;;;;;;;;;;;26.06;44.19;100325.64;1680407;85;20195;-78
2021/06/29 02:58:27;;;;;;;;;;;;;;;26.09;44.20;100327.04;1679916;85;20164;-79
2021/06/29 03:00:53;;;;;;;;;;;;;;;26.13;44.12;100316.36;1679876;85;20177;-81
2021/06/29 03:03:19;;;;;;;;;;;;;;;26.16;44.01;100319.41;1654583;85;20298;-80
2021/06/29 03:05:45;;;;;;;;;;;;;;;26.19;43.99;100322.98;1679859;85;20232;-79
2021/06/29 03:08:11;;;;;;;;;;;;;;;26.24;43.97;100327.67;1680104;85;20215;-79
2021/06/29 03:10:37;;;;;;;;;;;;;;;26.27;43.87;100329.91;1679820;85;20175;-79
2021/06/29 03:13:03;;;;;;;;;;;;;;;26.29;43.81;100329.91;1679492;85;20180;-78
2021/06/29 03:15:29;;;;;;;;;;;;;;;26.32;43.88;100335.42;1679457;85;20473;-77
2021/06/29 03:17:55;;;;;;;;;;;;;;;26.38;43.94;100340.39;1679307;85;20258;-79
2021/06/29 03:20:21;;;;;;;;;;;;;;;26.38;43.95;100337.09;1679597;85;20302;-77
2021/06/29 03:22:47;;;;;;;;;;;;;;;26.44;43.86;100333.89;1679416;85;20203;-79
2021/06/29 03:25:13;;;;;;;;;;;;;;;26.47;43.75;100342.95;1680206;85;20169;-77
2021/06/29 03:27:40;;;;;;;;;;;;;;;26.48;43.74;100345.45;1679152;85;20540;-77
2021/06/29 03:30:08;;;;;;;;;;;;;;;26.51;43.74;100345.44;1678775;85;20224;-80
2021/06/29 03:32:34;;;;;;;;;;;;;;;26.52;43.66;100348.46;1678951;85;20231;-80
2021/06/29 03:35:02;;;;;;;;;;;;;;;26.52;43.72;100340.22;1678729;85;20234;-78
2021/06/29 03:37:28;;;;;;;;;;;;;;;26.54;43.72;100350.41;1677521;85;20195;-78
2021/06/29 03:39:55;;;;;;;;;;;;;;;26.55;43.70;100352.06;1679486;85;20737;-78
2021/06/29 03:42:21;;;;;;;;;;;;;;;26.55;43.80;100352.06;1679230;85;20203;-78
2021/06/29 03:44:47;;;;;;;;;;;;;;;26.57;43.89;100349.86;1680162;85;20211;-78
2021/06/29 03:47:14;;;;;;;;;;;;;;;26.59;43.91;100355.94;1688069;84;20182;-79
2021/06/29 03:49:40;;;;;;;;;;;;;;;26.59;43.91;100347.69;1695343;84;20182;-78
2021/06/29 03:52:06;;;;;;;;;;;;;;;26.59;44.02;100358.68;1700738;84;20189;-78
2021/06/29 03:54:32;;;;;;;;;;;;;;;26.60;44.06;100352.08;1695205;84;20192;-79
2021/06/29 03:56:58;;;;;;;;;;;;;;;26.64;44.16;100362.00;1682392;84;20784;-80
2021/06/29 03:59:24;;;;;;;;;;;;;;;26.64;44.20;100353.20;1687469;83;20174;-80
2021/06/29 04:01:50;;;;;;;;;;;;;;;26.69;44.25;100354.60;1667634;86;20763;-79
2021/06/29 04:04:16;;;;;;;;;;;;;;;26.72;44.19;100357.38;1667889;86;20194;-80
2021/06/29 04:06:42;;;;;;;;;;;;;;;26.75;44.12;100354.92;1664384;86;20287;-78
2021/06/29 04:09:08;;;;;;;;;;;;;;;26.78;44.11;100352.99;1663632;86;20247;-77
2021/06/29 04:11:34;;;;;;;;;;;;;;;26.81;44.04;100351.09;1680697;84;20180;-78
2021/06/29 04:14:00;;;;;;;;;;;;;;;26.86;44.13;100356.34;1682797;84;20225;-79
2021/06/29 04:16:26;;;;;;;;;;;;;;;26.92;44.31;100353.88;1682434;85;20960;-79
2021/06/29 04:18:52;;;;;;;;;;;;;;;26.97;44.19;100351.14;1676233;85;20235;-78
2021/06/29 04:21:18;;;;;;;;;;;;;;;27.05;44.19;100358.87;1665440;85;20248;-78
2021/06/29 04:23:44;;;;;;;;;;;;;;;27.11;44.24;100358.37;1664778;85;20191;-79
2021/06/29 04:26:12;;;;;;;;;;;;;;;27.19;44.13;100357.30;1665409;86;20547;-78
2021/06/29 04:28:37;;;;;;;;;;;;;;;27.25;43.99;100356.23;1679196;85;20195;-78
2021/06/29 04:31:03;;;;;;;;;;;;;;;27.33;43.95;100360.36;1678015;85;20322;-78
2021/06/29 04:33:29;;;;;;;;;;;;;;;27.39;44.00;100359.28;1677958;85;20242;-78
2021/06/29 04:35:55;;;;;;;;;;;;;;;27.46;43.87;100368.64;1677707;85;20247;-78
2021/06/29 04:38:21;;;;;;;;;;;;;;;27.51;43.98;100363.14;1688796;84;20767;-78
2021/06/29 04:40:47;;;;;;;;;;;;;;;27.54;43.97;100362.61;1676814;84;20259;-79
2021/06/29 04:43:15;;;;;;;;;;;;;;;27.60;43.75;100368.38;1685959;84;20239;-79
2021/06/29 04:45:41;;;;;;;;;;;;;;;27.67;43.83;100366.75;1685979;84;20210;-79
2021/06/29 04:48:07;;;;;;;;;;;;;;;27.76;43.77;100366.52;1679550;84;20250;-78
2021/06/29 04:50:34;;;;;;;;;;;;;;;27.86;43.80;100361.01;1677434;85;20493;-78
2021/06/29 04:53:00;;;;;;;;;;;;;;;27.96;43.62;100367.06;1676827;84;20219;-77
2021/06/29 04:55:26;;;;;;;;;;;;;;;28.03;43.54;100363.48;1650334;85;20325;-78
2021/06/29 04:57:52;;;;;;;;;;;;;;;28.13;43.56;100364.85;1677184;85;20243;-77
2021/06/29 05:00:20;;;;;;;;;;;;;;;28.23;43.32;100359.88;1677432;85;20167;-79
2021/06/29 05:02:46;;;;;;;;;;;;;;;28.31;43.21;100356.01;1676656;84;20157;-77
2021/06/29 05:05:12;;;;;;;;;;;;;;;28.40;42.90;100356.86;1675684;85;20156;-78
2021/06/29 05:07:39;;;;;;;;;;;;;;;28.47;42.99;100358.75;1675643;84;20259;-78
2021/06/29 05:10:06;;;;;;;;;;;;;;;28.53;42.78;100359.03;1673365;85;20193;-78
2021/06/29 05:12:32;;;;;;;;;;;;;;;28.59;42.82;100355.14;1674925;85;20180;-78
2021/06/29 05:14:58;;;;;;;;;;;;;;;28.65;42.51;100356.77;1686747;85;20229;-77
2021/06/29 05:17:24;;;;;;;;;;;;;;;28.70;42.58;100353.17;1684962;84;20206;-77
2021/06/29 05:19:50;;;;;;;;;;;;;;;28.78;42.59;100356.72;1659941;85;20157;-78
2021/06/29 05:22:16;;;;;;;;;;;;;;;28.81;42.30;100358.38;1659824;85;20176;-80
2021/06/29 05:24:42;;;;;;;;;;;;;;;28.87;42.15;100353.66;1656105;85;20770;-79
2021/06/29 05:27:08;;;;;;;;;;;;;;;28.91;41.92;100360.81;1657512;85;20197;-79
2021/06/29 05:29:34;;;;;;;;;;;;;;;28.94;41.90;100353.36;1658228;85;20156;-77
2021/06/29 05:32:00;;;;;;;;;;;;;;;28.95;41.83;100361.38;1673545;85;20203;-78
2021/06/29 05:34:26;;;;;;;;;;;;;;;28.98;41.79;100359.45;1673724;84;20163;-78
2021/06/29 05:36:52;;;;;;;;;;;;;;;28.99;41.73;100365.22;1681285;83;20144;-78
2021/06/29 05:39:18;;;;;;;;;;;;;;;29.00;41.78;100365.48;1667991;84;20326;-79
2021/06/29 05:41:44;;;;;;;;;;;;;;;29.01;42.01;100370.44;1669267;84;20154;-79
2021/06/29 05:44:10;;;;;;;;;;;;;;;28.99;42.14;100369.36;1690587;83;20150;-78
2021/06/29 05:46:41;;;;;;;;;;;;;;;29.05;41.65;100374.29;1645172;85;20174;-79
2021/06/29 05:49:13;;;;;;;;;;;;;;;29.02;41.87;100372.09;1669870;84;20128;-78
2021/06/29 05:51:37;;;;;;;;;;;;;;;29.00;41.91;100363.28;1648168;85;20188;-78
2021/06/29 05:54:03;;;;;;;;;;;;;;;29.00;41.93;100368.80;1673643;84;20188;-78
2021/06/29 05:56:29;;;;;;;;;;;;;;;29.02;41.81;100370.18;1678585;84;20145;-77
2021/06/29 05:58:56;;;;;;;;;;;;;;;29.03;41.96;100367.69;1676735;84;20854;-79
2021/06/29 06:01:22;;;;;;;;;;;;;;;29.10;41.89;100371.50;1676360;84;20470;-78
2021/06/29 06:03:48;;;;;;;;;;;;;;;29.16;42.20;100363.49;1677523;84;20245;-78
2021/06/29 06:06:14;;;;;;;;;;;;;;;29.24;42.31;100368.39;1664752;84;20232;-78
2021/06/29 06:08:40;;;;;;;;;;;;;;;29.37;42.17;100370.26;1661809;84;20212;-80
2021/06/29 06:11:23;;;;;;;;;;;;;;;29.50;42.21;100373.77;1686721;83;20206;-81
2021/06/29 06:13:50;;;;;;;;;;;;;;;29.67;41.94;100370.65;1626623;84;20185;-81
2021/06/29 06:16:18;;;;;;;;;;;;;;;29.86;41.61;100363.88;1676475;84;20235;-79
2021/06/29 06:18:44;;;;;;;;;;;;;;;30.05;41.28;100366.18;1677446;84;20183;-78
2021/06/29 06:21:13;;;;;;;;;;;;;;;30.24;40.74;100371.27;1650761;85;20188;-80
2021/06/29 06:23:39;;;;;;;;;;;;;;;30.45;40.38;100358.08;1673678;84;20212;-78
2021/06/29 06:26:05;;;;;;;;;;;;;;;30.67;39.94;100363.09;1682210;83;20237;-79
2021/06/29 06:28:32;;;;;;;;;;;;;;;30.87;39.27;100364.80;1669468;84;21001;-79
2021/06/29 06:30:59;;;;;;;;;;;;;;;31.07;38.93;100369.27;1655625;84;20179;-79
2021/06/29 06:33:25;;;;;;;;;;;;;;;31.24;38.53;100364.02;1679095;83;20534;-79
2021/06/29 06:36:50;;;;;;;;;;;;;;;;;;;;;
2021/06/29 06:43:15;;;;;;;;;;;;;;;31.87;37.92;100371.72;1519851;92;20219;-79
2021/06/29 06:49:05;;;;;;;;;;;;;;;32.06;37.20;100374.70;1529229;91;20184;-78
2021/06/29 06:51:33;;;;;;;;;;;;;;;32.10;37.37;100372.15;1589849;87;20187;-79
2021/06/29 06:53:59;;;;;;;;;;;;;;;32.19;37.49;100374.48;1642878;84;20198;-79
2021/06/29 06:56:25;;;;;;;;;;;;;;;32.38;36.96;100373.62;1682756;83;20178;-78
2021/06/29 06:58:51;;;;;;;;;;;;;;;32.41;37.25;100379.95;1651435;85;20162;-77
2021/06/29 07:01:17;;;;;;;;;;;;;;;32.54;37.09;100377.76;1676145;84;20173;-78
2021/06/29 07:03:44;;;;;;;;;;;;;;;32.71;36.78;100371.05;1676083;84;20167;-79
2021/06/29 07:06:12;;;;;;;;;;;;;;;32.90;36.15;100369.54;1673535;84;20252;-78
2021/06/29 07:08:37;;;;;;;;;;;;;;;33.05;35.94;100367.03;1677436;83;20215;-78
2021/06/29 07:11:06;;;;;;;;;;;;;;;33.23;35.78;100370.23;1665103;84;20175;-78
2021/06/29 07:13:32;;;;;;;;;;;;;;;33.38;35.63;100375.99;1662974;84;20487;-78
2021/06/29 07:15:57;;;;;;;;;;;;;;;33.51;35.30;100375.73;1664309;84;20195;-81
2021/06/29 07:18:23;;;;;;;;;;;;;;;33.67;35.17;100375.63;1682909;83;20571;-78
2021/06/29 07:20:51;;;;;;;;;;;;;;;33.85;34.66;100372.42;1666526;84;20165;-81
2021/06/29 07:23:18;;;;;;;;;;;;;;;34.01;34.29;100378.43;1664008;84;20193;-78
2021/06/29 07:25:44;;;;;;;;;;;;;;;34.12;34.34;100374.27;1677193;84;20591;-78
2021/06/29 07:28:10;;;;;;;;;;;;;;;34.22;34.12;100384.29;1663236;84;20200;-79
2021/06/29 07:30:36;;;;;;;;;;;;;;;34.32;34.04;100383.44;1674538;84;20207;-78
2021/06/29 07:33:04;;;;;;;;;;;;;;;34.41;33.95;100383.48;1676972;84;20177;-78
2021/06/29 07:35:43;;;;;;;;;;;;;;;34.48;33.80;100388.64;1676004;84;20196;-80
2021/06/29 07:38:11;;;;;;;;;;;;;;;34.53;33.91;100386.53;1646988;85;20439;-79
2021/06/29 07:40:38;;;;;;;;;;;;;;;34.62;33.87;100386.56;1674459;84;20157;-79
2021/06/29 07:43:04;;;;;;;;;;;;;;;34.69;32.93;100389.69;1675656;84;20475;-78
2021/06/29 07:45:31;;;;;;;;;;;;;;;34.75;32.89;100390.39;1684297;84;20143;-79
2021/06/29 07:48:00;;;;;;;;;;;;;;;34.83;32.80;100384.82;1686015;84;21027;-78
2021/06/29 07:50:32;;;;;;;;;;;;;;;34.91;32.53;100390.75;1656911;84;20178;-78
2021/06/29 07:53:12;;;;;;;;;;;;;;;34.93;32.22;100389.84;1658598;85;20186;-78
2021/06/29 07:58:56;;;;;;;;;;;;;;;34.75;31.48;100393.17;1681607;83;20540;-79
2021/06/29 08:01:24;;;;;;;;;;;;;;;34.61;31.92;100393.25;1679644;83;20662;-78
2021/06/29 08:03:51;;;;;;;;;;;;;;;34.55;32.10;100393.16;1612869;85;20160;-78
2021/06/29 08:06:32;;;;;;;;;;;;;;;34.53;31.83;100396.84;1635267;85;20211;-79
2021/06/29 08:09:16;;;;;;;;;;;;;;;34.42;31.70;100397.63;1655211;84;20215;-80
2021/06/29 08:11:59;;;;;;;;;;;;;;;;;;;;;
2021/06/29 08:14:24;;;;;;;;;;;;;;;34.28;31.90;100393.55;1671372;84;20230;-80
2021/06/29 08:17:03;;;;;;;;;;;;;;;34.23;32.29;100403.42;1645812;84;20272;-80
2021/06/29 08:19:39;;;;;;;;;;;;;;;34.26;32.52;100394.45;1677537;83;20176;-80
2021/06/29 08:22:03;;;;;;;;;;;;;;;34.31;32.79;100397.09;1675029;84;20197;-79
2021/06/29 08:24:29;;;;;;;;;;;;;;;34.37;32.75;100388.62;1685743;83;20189;-76
2021/06/29 08:26:55;;;;;;;;;;;;;;;34.42;32.67;100397.63;1668666;84;20164;-82
2021/06/29 08:29:24;;;;;;;;;;;;;;;34.45;32.01;100393.41;1681271;83;20186;-79
2021/06/29 08:31:54;;;;;;;;;;;;;;;34.44;31.90;100393.16;1668557;84;20179;-77
2021/06/29 08:34:21;;;;;;;;;;;;;;;34.41;31.96;100391.02;1674367;84;20203;-78
2021/06/29 08:37:03;;;;;;;;;;;;;;;34.43;31.97;100388.72;1682601;83;20187;-78
2021/06/29 08:42:20;;;;;;;;;;;;;;;34.51;32.15;100393.54;1654471;84;20224;-79
2021/06/29 08:44:51;;;;;;;;;;;;;;;34.58;31.70;100391.95;1677763;84;20178;-79
2021/06/29 08:47:20;;;;;;;;;;;;;;;34.51;31.42;100391.57;1657814;84;20139;-78
2021/06/29 08:49:48;;;;;;;;;;;;;;;34.47;31.26;100385.01;1677138;84;20479;-81
2021/06/29 08:52:19;;;;;;;;;;;;;;;34.41;31.35;100382.67;1674406;85;21191;-80
2021/06/29 08:55:11;;;;;;;;;;;;;;;34.36;31.63;100385.59;1647151;84;20133;-79
2021/06/29 08:57:27;;;;;;;;;;;;;;;34.24;31.59;100390.34;1669694;84;20586;-81
2021/06/29 08:59:56;;;;;;;;;;;;;;;34.09;31.51;100388.78;1649278;84;20351;-80
2021/06/29 09:02:23;;;;;;;;;;;;;;;33.95;31.63;100386.63;1676505;84;20176;-78
2021/06/29 09:04:51;;;;;;;;;;;;;;;33.74;31.89;100377.96;1638648;85;20359;-79
2021/06/29 09:07:28;;;;;;;;;;;;;;;33.62;32.04;100371.59;1683335;83;20662;-80
2021/06/29 09:10:29;;;;;;;;;;;;;;;33.57;31.82;100370.33;1657169;84;20547;-79
2021/06/29 09:13:37;;;;;;;;;;;;;;;33.56;31.97;100365.89;1545820;90;20181;-80
2021/06/29 09:16:16;;;;;;;;;;;;;;;33.55;31.47;100362.30;1540909;91;20689;-81
2021/06/29 09:18:45;;;;;;;;;;;;;;;33.50;31.45;100358.83;1620594;84;20908;-79
2021/06/29 09:21:14;;;;;;;;;;;;;;;33.44;31.39;100355.36;1646581;84;20409;-79
2021/06/29 09:23:47;;;;;;;;;;;;;;;33.39;31.70;100353.23;1670132;84;20217;-78
2021/06/29 09:26:19;;;;;;;;;;;;;;;33.36;31.28;100349.69;1674635;84;20215;-78
2021/06/29 09:28:53;;;;;;;;;;;;;;;33.35;31.35;100353.61;1673291;84;20450;-79
2021/06/29 09:31:24;;;;;;;;;;;;;;;33.36;31.70;100345.53;1676338;84;20180;-79
2021/06/29 09:33:53;;;;;;;;;;;;;;;33.37;31.91;100351.33;1675446;84;20149;-76
2021/06/29 09:36:21;;;;;;;;;;;;;;;33.37;31.71;100339.65;1674803;84;20200;-77
2021/06/29 09:38:50;;;;;;;;;;;;;;;33.40;31.48;100340.99;1676022;84;20158;-80
2021/06/29 09:41:28;;;;;;;;;;;;;;;33.38;30.69;100336.30;1680711;84;20182;-79
2021/06/29 09:44:06;;;;;;;;;;;;;;;33.34;30.95;100337.52;1675290;84;20250;-80
2021/06/29 09:46:32;;;;;;;;;;;;;;;33.31;31.04;100336.18;1657353;85;20169;-80
2021/06/29 09:49:01;;;;;;;;;;;;;;;33.28;30.83;100335.41;1655617;85;20223;-80
2021/06/29 09:51:30;;;;;;;;;;;;;;;33.23;30.80;100332.75;1634311;83;20172;-80
2021/06/29 09:53:58;;;;;;;;;;;;;;;33.18;30.87;100325.94;1675485;84;20262;-79
2021/06/29 09:56:25;;;;;;;;;;;;;;;33.15;30.92;100333.48;1673611;84;20197;-81
2021/06/29 09:58:56;;;;;;;;;;;;;;;33.09;31.26;100325.03;1625729;84;20193;-81
2021/06/29 10:01:30;;;;;;;;;;;;;;;33.05;31.41;100319.85;1673645;84;20582;-81
2021/06/29 10:03:58;;;;;;;;;;;;;;;33.01;31.43;100323.81;1673006;84;20196;-80
2021/06/29 10:06:27;;;;;;;;;;;;;;;32.97;31.99;100317.80;1671432;84;20513;-79
2021/06/29 10:09:17;;;;;;;;;;;;;;;32.94;31.86;100314.28;1677827;83;20155;-79
2021/06/29 10:11:51;;;;;;;;;;;;;;;32.89;32.04;100302.70;1645430;84;20485;-77
2021/06/29 10:14:15;;;;;;;;;;;;;;;32.89;32.44;100302.70;1671791;84;20227;-80
2021/06/29 10:16:44;;;;;;;;;;;;;;;32.89;32.61;100300.50;1669233;84;20877;-80
2021/06/29 10:21:44;;;;;;;;;;;;;;;32.74;32.18;100302.45;1671259;84;20495;-79
2021/06/29 10:24:24;;;;;;;;;;;;;;;32.73;32.57;100299.42;1681384;83;20203;-79
2021/06/29 10:26:56;;;;;;;;;;;;;;;32.72;32.71;100300.56;1675022;84;20192;-78
2021/06/29 10:29:23;;;;;;;;;;;;;;;32.73;32.62;100287.52;1679018;84;20361;-78
2021/06/29 10:31:51;;;;;;;;;;;;;;;32.69;32.74;100290.08;1676733;84;20208;-80
2021/06/29 10:34:17;;;;;;;;;;;;;;;32.66;32.36;100284.33;1675597;84;20447;-78
2021/06/29 10:36:49;;;;;;;;;;;;;;;32.64;32.53;100283.83;1683439;83;20183;-79
2021/06/29 10:39:18;;;;;;;;;;;;;;;32.63;32.79;100284.97;1666558;84;20151;-78
2021/06/29 10:41:47;;;;;;;;;;;;;;;32.61;32.75;100285.25;1662009;85;20320;-80
2021/06/29 10:44:15;;;;;;;;;;;;;;;32.60;33.06;100282.23;1685379;84;20174;-81
2021/06/29 10:46:43;;;;;;;;;;;;;;;32.55;33.22;100286.50;1667390;83;20747;-78
2021/06/29 10:49:40;;;;;;;;;;;;;;;32.54;33.24;100280.70;1673498;84;20546;-78
2021/06/29 10:52:26;;;;;;;;;;;;;;;32.48;33.52;100291.09;1673510;84;20631;-78
2021/06/29 10:54:57;;;;;;;;;;;;;;;32.44;33.72;100294.78;1677424;84;20212;-79
2021/06/29 10:57:37;;;;;;;;;;;;;;;32.37;33.56;100292.41;1673653;84;20175;-79
2021/06/29 11:00:06;;;;;;;;;;;;;;;32.30;33.75;100307.23;1650452;84;20165;-78
2021/06/29 11:02:34;;;;;;;;;;;;;;;32.28;33.85;100304.73;1668609;84;20213;-78
2021/06/29 11:05:05;;;;;;;;;;;;;;;32.22;33.92;100317.63;1674096;84;20433;-78
2021/06/29 11:07:37;;;;;;;;;;;;;;;32.13;33.98;100324.44;1674846;84;20196;-78
2021/06/29 11:10:07;;;;;;;;;;;;;;;32.09;34.08;100340.03;1675219;84;20177;-79
2021/06/29 11:12:49;;;;;;;;;;;;;;;32.01;34.09;100350.42;1673056;84;20188;-78
2021/06/29 11:15:16;;;;;;;;;;;;;;;31.94;34.49;100365.25;1679933;83;20281;-78
2021/06/29 11:17:52;;;;;;;;;;;;;;;31.87;34.01;100386.39;1656524;84;20198;-77
2021/06/29 11:20:22;;;;;;;;;;;;;;;31.69;34.09;100373.36;1655324;84;20184;-77
2021/06/29 11:22:54;;;;;;;;;;;;;;;31.58;33.67;100370.77;1677671;84;20205;-78
2021/06/29 11:25:42;;;;;;;;;;;;;;;31.43;33.60;100372.92;1672178;84;20887;-78
2021/06/29 11:28:19;;;;;;;;;;;;;;;31.38;35.68;100363.31;1671134;84;20184;-79
2021/06/29 11:31:02;;;;;;;;;;;;;;;31.24;36.78;100372.89;1672716;84;20196;-76
2021/06/29 11:33:35;;;;;;;;;;;;;;;31.11;38.31;100380.54;1674874;84;20453;-78
2021/06/29 11:36:04;;;;;;;;;;;;;;;30.95;38.53;100364.72;1674578;84;20438;-78
2021/06/29 11:38:34;;;;;;;;;;;;;;;30.82;37.89;100361.54;1683316;84;20172;-78
2021/06/29 11:41:30;;;;;;;;;;;;;;;30.72;36.96;100363.05;1680111;84;20154;-78
2021/06/29 11:44:00;;;;;;;;;;;;;;;30.66;37.36;100357.30;1610122;88;20450;-78
2021/06/29 11:46:49;;;;;;;;;;;;;;;30.58;36.45;100348.27;1659109;84;20199;-78
2021/06/29 11:49:37;;;;;;;;;;;;;;;30.55;36.96;100340.55;1679040;84;20181;-76
2021/06/29 11:52:20;;;;;;;;;;;;;;;30.50;38.42;100346.14;1682175;84;20196;-77
2021/06/29 11:54:47;;;;;;;;;;;;;;;30.49;37.95;100345.88;1674465;84;20184;-77
2021/06/29 11:57:16;;;;;;;;;;;;;;;30.44;36.89;100346.77;1674714;84;20197;-78
2021/06/29 11:59:42;;;;;;;;;;;;;;;30.44;36.33;100341.23;1680412;84;20182;-78
2021/06/29 12:02:09;;;;;;;;;;;;;;;30.42;36.78;100341.25;1672854;84;20147;-77
2021/06/29 12:04:57;;;;;;;;;;;;;;;30.42;36.77;100342.63;1673404;84;20470;-77
2021/06/29 12:07:38;;;;;;;;;;;;;;;30.42;37.23;100334.34;1654670;84;20196;-77
2021/06/29 12:10:10;;;;;;;;;;;;;;;30.41;38.00;100345.95;1680442;84;20145;-77
2021/06/29 12:12:37;;;;;;;;;;;;;;;30.41;38.35;100340.99;1679902;84;20138;-79
2021/06/29 12:15:23;;;;;;;;;;;;;;;;;;;;;
2021/06/29 12:17:59;;;;;;;;;;;;;;;30.36;38.94;100332.77;1681736;84;20707;-78
2021/06/29 12:20:31;;;;;;;;;;;;;;;30.30;39.06;100330.06;1678789;84;20604;-79
2021/06/29 12:22:58;;;;;;;;;;;;;;;30.25;38.99;100324.59;1676580;84;20203;-77
2021/06/29 12:25:30;;;;;;;;;;;;;;;30.37;38.43;100324.17;1678468;84;20166;-79
2021/06/29 12:28:06;;;;;;;;;;;;;;;30.36;38.54;100319.77;1675953;84;20215;-79
2021/06/29 12:30:34;;;;;;;;;;;;;;;30.34;38.74;100313.69;1672699;84;20395;-78
2021/06/29 12:33:13;;;;;;;;;;;;;;;30.35;38.79;100300.16;1658433;83;20570;-78
2021/06/29 12:35:39;;;;;;;;;;;;;;;30.35;38.48;100302.92;1682493;84;20202;-78
2021/06/29 12:38:11;;;;;;;;;;;;;;;30.33;38.48;100303.20;1666463;84;20155;-78
2021/06/29 12:40:38;;;;;;;;;;;;;;;30.31;38.35;100297.16;1679076;84;20552;-77
2021/06/29 12:43:24;;;;;;;;;;;;;;;30.29;38.40;100293.84;1673287;84;20186;-78
2021/06/29 12:45:50;;;;;;;;;;;;;;;30.30;38.64;100289.99;1653160;85;20121;-77
2021/06/29 12:48:21;;;;;;;;;;;;;;;30.30;38.81;100292.75;1599807;85;20164;-78
2021/06/29 12:51:02;;;;;;;;;;;;;;;30.32;38.46;100302.13;1674120;84;20169;-79
2021/06/29 12:53:29;;;;;;;;;;;;;;;30.37;38.61;100295.72;1674805;84;20212;-78
2021/06/29 12:56:16;;;;;;;;;;;;;;;30.39;38.60;100296.23;1675129;84;20201;-78
2021/06/29 12:58:38;;;;;;;;;;;;;;;30.42;38.32;100303.94;1674070;84;20189;-79
2021/06/29 13:01:04;;;;;;;;;;;;;;;30.43;38.30;100308.34;1680888;83;20183;-78
2021/06/29 13:03:37;;;;;;;;;;;;;;;30.45;38.35;100304.74;1628670;85;20156;-78
2021/06/29 13:06:09;;;;;;;;;;;;;;;30.48;38.35;100313.84;1687234;83;20144;-78
2021/06/29 13:08:35;;;;;;;;;;;;;;;30.50;37.98;100316.55;1668960;84;20189;-78
2021/06/29 13:11:16;;;;;;;;;;;;;;;30.54;37.82;100314.03;1667487;84;20202;-78
2021/06/29 13:14:02;;;;;;;;;;;;;;;30.55;37.69;100315.11;1660772;85;20192;-77